Weather observations for the past three days for
Middlesboro, Middlesboro-Bell County Airport
Metric (Imperial)
Date Time (edt) Wind (kph) Vis. (km) Weather Sky Cond. Temperature (ºC) Relative Humidity Wind Chill (°C) Heat Index (°C) Pressure Precipitation (cm)
Air Dwpt 6 hour altimeter (cm) sea level (mb) 1 hr 3 hr 6 hr
Max. Min.
05 13:55 Calm 16.09 Partly Cloudy SCT065 30.7 22.2 31.6 21.5 61% 34 76.2 0.0
05 13:35 NE 6 16.09 Fair CLR 30.8 22.6 62% 35 76.2 0.0
05 13:15 Calm 16.09 Fair CLR 30.3 22.7 64% 34 76.2 0.0
05 12:55 Calm 16.09 Fair CLR 29 22 66% 32 76.23 0.0
05 12:35 N 6 16.09 Fair CLR 28.3 22.2 70% 31 76.28 0.0
05 12:15 NE 9 16.09 Partly Cloudy SCT023 29 22.1 66% 32 76.28 0.0
05 11:55 N 15 16.09 Partly Cloudy SCT023 SCT055 28.5 22.6 70% 32 76.3 0.0
05 11:35 N 13 16.09 Mostly Cloudy BKN025 BKN055 BKN070 27.5 22.1 72% 30 76.33 0.0
05 11:15 N 15 G 28 16.09 Mostly Cloudy SCT025 BKN035 BKN055 27.5 22.4 74% 30 76.33 0.0
05 10:55 Calm 16.09 Overcast SCT035 BKN055 OVC080 25.5 23 86% 27 76.28 0.0
05 10:35 Calm 16.09 Overcast SCT006 BKN048 OVC075 24.3 22.6 90% 24 76.28 0.0
05 10:15 Calm 16.09 Overcast OVC004 23.9 22.6 92% 23 76.25 0.0
05 09:55 Calm 11.27 Overcast OVC002 22.8 22.3 97% 76.25 0.0
05 09:35 Calm 6.44 Fog/Mist OVC002 22.3 22 98% 76.28 0.0
05 09:15 Calm 2.01 Fog/Mist OVC002 21.9 21.9 100% 76.28 0.0
05 08:55 Calm 2.41 Fog/Mist OVC002 21.8 21.8 100% 76.3 0.0
05 08:35 Calm 0.80 Fog OVC002 21.6 21.6 100% 76.3 0.0
05 08:15 Calm 0.40 Fog OVC002 21.6 21.6 100% 76.28 0.0
05 07:55 Calm 0.40 Fog OVC002 21.5 21.5 22.7 21 100% 76.28 0.0
05 07:35 Calm 1.21 Fog/Mist OVC002 21.5 21.5 100% 76.25 0.0
05 07:15 Calm 0.80 Fog OVC002 21.3 21.3 100% 76.25 0.0
05 06:55 Calm 8.05 Fog/Mist OVC004 21.5 21.5 100% 76.23 0.0
05 06:35 Calm 11.27 Overcast OVC004 21.5 21.5 100% 76.23 0.0
05 06:15 Calm 11.27 Overcast OVC004 21.2 21.2 100% 76.2 0.0
05 05:55 Calm 16.09 Overcast OVC004 21.3 21.3 100% 76.2 0.0
05 05:35 Calm 16.09 Mostly Cloudy BKN006 21.3 21.2 99% 76.2 0.0
05 05:15 Calm 8.05 Fog/Mist BKN006 21.4 21.4 100% 76.2 0.0
05 04:55 Calm 16.09 Partly Cloudy SCT004 21.5 21.3 99% 76.17 0.0
05 04:35 Calm 16.09 Mostly Cloudy BKN004 21.7 21.5 99% 76.2 0.0
05 04:15 Calm 16.09 Mostly Cloudy BKN006 21.8 21.5 98% 76.2 0.0
05 03:55 Calm 16.09 Fair CLR 21.6 21.5 99% 76.2 0.0
05 03:35 Calm 16.09 Fair CLR 22 21.5 97% 76.23 0.0
05 03:15 Calm 16.09 Fair CLR 22.1 21.6 97% 76.23 0.0
05 02:55 Calm 16.09 Fair CLR 22 21.7 98% 76.25 0.0
05 02:35 Calm 16.09 Fair CLR 22.2 22 99% 76.25 0.0
05 02:15 Calm 16.09 Fair CLR 22.1 21.6 97% 76.28 0.0
05 01:55 Calm 16.09 Fair CLR 22.5 22.1 27 22.5 98% 76.28 0.0
05 01:35 Calm 16.09 Fair CLR 22.8 22 95% 76.3 0.0
05 01:15 Calm 16.09 Fair CLR 23 22.1 95% 76.28 0.0
05 00:55 Calm 16.09 Fair CLR 23 22.2 95% 76.3 0.0
05 00:35 Calm 16.09 Fair CLR 23 22.3 96% 76.3 0.0
05 00:15 Calm 16.09 Fair CLR 23 22.1 95% 76.28 0.0
04 23:55 S 6 16.09 Fair CLR 23.7 22.1 91% 76.28 0.0
04 23:35 Calm 16.09 Fair CLR 24 22.3 90% 24 76.28 0.0
04 23:15 Calm 16.09 Fair CLR 24.1 22.9 93% 24 76.25 0.0
04 22:55 Calm 16.09 Fair CLR 24.5 22.2 87% 25 76.25 0.0
04 22:35 Calm 16.09 Fair CLR 24.7 22.1 86% 25 76.25 0.0
04 22:15 SW 7 16.09 Fair CLR 24.9 22.4 86% 26 76.25 0.0
04 21:55 SW 11 16.09 Fair CLR 25.4 22.3 83% 27 76.25 0.0
04 21:35 SW 7 16.09 Fair CLR 25.1 22.7 87% 26 76.25 0.0
04 21:15 SW 6 16.09 Fair CLR 25.5 22.6 84% 27 76.25 0.0
04 20:55 SW 6 16.09 Fair CLR 25.7 22.6 83% 27 76.25 0.0
04 20:35 W 11 16.09 Fair CLR 25.7 22.7 84% 27 76.28 0.0
04 20:15 W 11 16.09 Fair CLR 26.4 22.7 80% 28 76.28 0.0
04 19:55 SW 11 16.09 Fair CLR 26.9 23 36.1 26.9 79% 29 76.28 0.0
04 19:35 W 11 16.09 Fair CLR 27.5 23.1 77% 31 76.28 0.0
04 19:15 W 7 16.09 Fair CLR 28.8 23.3 72% 33 76.25 0.0
04 18:55 W 6 16.09 Thunderstorm in Vicinity SCT055 30.8 22.9 63% 35 76.23 0.0
04 18:35 W 6 16.09 Partly Cloudy SCT055 SCT120 31.5 24.5 66% 38 76.2 0.0
04 18:15 Calm 16.09 Mostly Cloudy SCT055 SCT100 BKN120 31.5 24.2 65% 37 76.2 0.0
04 17:55 N 7 16.09 Partly Cloudy SCT100 SCT120 34.6 23.6 53% 41 76.17 0.0
04 17:35 S 6 16.09 Partly Cloudy SCT120 35.2 22.9 49% 41 76.17 0.0
04 17:15 Calm 16.09 Fair CLR 35.5 22.5 47% 41 76.17 0.0
04 16:55 Calm 16.09 Fair CLR 35 22.4 48% 40 76.2 0.0
04 16:35 Calm 16.09 Fair CLR 35.6 22.3 46% 41 76.2 0.0
04 16:15 SW 7 16.09 Fair CLR 35.8 22.8 47% 41 76.23 0.0
04 15:55 SW 9 16.09 Fair CLR 35.2 22.6 48% 40 76.25 0.0
04 15:35 Calm 16.09 Fair CLR 35.4 22.1 46% 40 76.28 0.0
04 15:15 Calm 16.09 Fair CLR 35.6 22.7 47% 41 76.3 0.0
04 14:55 S 9 16.09 Fair CLR 34.8 23.3 51% 41 76.33 0.0
04 14:35 S 11 16.09 Fair CLR 35.5 23.3 49% 42 76.33 0.0
04 14:15 W 6 16.09 Partly Cloudy SCT060 34.8 23.2 51% 41 76.35 0.0
04 13:55 Calm 16.09 Partly Cloudy SCT050 SCT120 33.8 22.5 35.6 21.2 52% 38 76.38 0.0
04 13:35 E 6 16.09 Fair CLR 34.8 23 50% 40 76.4 0.0
04 13:15 Calm 16.09 Fair CLR 33.5 23.7 56% 39 76.4 0.0
04 12:55 Calm 16.09 Fair CLR 33.3 24.1 59% 40 76.43 0.0
04 12:35 Calm 16.09 Fair CLR 33.2 24.3 60% 40 76.43 0.0
04 12:15 Calm 16.09 Fair CLR 32.3 24.4 63% 39 76.45 0.0
04 11:35 Calm 16.09 Fair CLR 30.1 24 70% 35 76.48 0.0
04 11:15 Calm 16.09 Fair CLR 29.2 23.5 71% 33 76.48 0.0
04 10:55 Calm 16.09 Fair CLR 27.9 23 75% 31 76.48 0.0
04 10:35 Calm 16.09 Fair CLR 26 22.6 82% 28 76.48 0.0
04 10:15 Calm 16.09 Mostly Cloudy BKN004 25 22.6 87% 26 76.48 0.0
04 09:55 Calm 16.09 Overcast OVC004 23.5 22.4 94% 76.5 0.0
04 09:35 Calm 11.27 Overcast OVC002 22.6 22.2 98% 76.5 0.0
04 09:15 Calm 8.05 Fog/Mist OVC002 22.1 22 99% 76.5 0.0
04 08:55 Calm 11.27 Overcast OVC002 21.9 21.7 99% 76.5 0.0
04 08:35 Calm 6.44 Fog/Mist OVC002 21.6 21.5 99% 76.48 0.0
04 07:55 Calm 0.24 Fog OVC002 21.3 21.3 22.7 20.7 100% 76.45 0.0
04 07:35 Calm 0.40 Fog OVC002 21.2 21.2 100% 76.43 0.0
04 07:15 Calm 4.02 Fog/Mist OVC002 21.4 21.4 100% 76.43 0.0
04 06:55 Calm 2.01 Fog/Mist OVC002 21.2 21.2 100% 76.43 0.0
04 06:35 Calm 4.83 Fog/Mist OVC004 21 21 100% 76.4 0.0
04 06:15 Calm 8.05 Fog/Mist OVC004 20.8 20.8 100% 76.38 0.0
04 05:55 Calm 8.05 Fog/Mist OVC004 21 21 100% 76.38 0.0
04 05:35 Calm 1.21 Fog/Mist OVC002 21.2 21.2 100% 76.38 0.0
04 05:15 Calm 4.83 Fog/Mist SCT002 SCT006 21.1 21.1 100% 76.38 0.0
04 04:55 Calm 1.21 Fog/Mist OVC002 21.5 21.5 100% 76.38 0.0
04 04:35 Calm 16.09 Overcast OVC004 21.6 21.3 98% 76.38 0.0
04 04:15 Calm 16.09 Partly Cloudy SCT004 21.4 21.1 98% 76.35 0.0
04 03:55 Calm 16.09 Fair CLR 21.7 21.3 98% 76.38 0.0
04 03:35 Calm 16.09 Fair CLR 21.5 21.4 99% 76.35 0.0
04 03:15 Calm 16.09 Fair CLR 21.6 21.4 99% 76.35 0.0
04 02:55 Calm 16.09 Fair CLR 21.9 21.5 98% 76.4 0.0
04 02:35 Calm 16.09 Fair CLR 22 21.6 98% 76.4 0.0
04 02:15 Calm 16.09 Fair CLR 22 21.5 97% 76.4 0.0
04 01:55 Calm 16.09 Fair CLR 22.7 21.6 28.2 22.2 94% 76.4 0.0
04 01:35 Calm 16.09 Fair CLR 22.2 21.6 96% 76.43 0.0
04 01:15 Calm 16.09 Fair CLR 22.7 21.7 94% 76.43 0.0
04 00:55 Calm 16.09 Fair CLR 22.5 21.7 95% 76.45 0.0
04 00:35 Calm 16.09 Fair CLR 23 22 94% 76.45 0.0
04 00:15 Calm 16.09 Fair CLR 23 21.8 93% 76.45 0.0
03 23:55 Calm 16.09 Fair CLR 23.6 22 91% 76.45 0.0
03 23:35 Calm 16.09 Fair CLR 23.7 22.2 91% 76.43 0.0
03 23:15 Calm 16.09 Fair CLR 23.7 22.2 91% 76.43 0.0
03 22:55 Calm 16.09 Fair CLR 24.3 22.3 89% 24 76.45 0.0
03 22:35 Calm 16.09 Fair CLR 25 22.5 86% 26 76.45 0.0
03 22:15 Calm 16.09 Fair CLR 25 22.5 86% 26 76.43 0.0
03 21:55 W 7 16.09 Fair CLR 25.5 22.7 85% 27 76.43 0.0
03 21:35 W 6 16.09 Fair CLR 25.6 23 86% 27 76.43 0.0
03 21:15 Calm 16.09 Fair CLR 26 22.8 83% 28 76.4 0.0
03 20:55 Calm 16.09 Fair CLR 26.6 23 81% 29 76.38 0.0
03 20:35 Calm 16.09 Fair CLR 27 23.2 80% 30 76.35 0.0
03 20:15 Calm 16.09 Fair CLR 27.6 23.2 77% 31 76.33 0.0
03 19:55 W 7 16.09 Fair CLR 28.3 23.3 35.5 28.3 74% 32 76.33 0.0
03 19:35 W 7 16.09 Fair CLR 29.7 23.6 70% 34 76.3 0.0
03 19:15 W 6 16.09 Fair CLR 30.9 23.8 66% 36 76.28 0.0
03 18:55 W 7 16.09 Fair CLR 31.8 23.8 63% 37 76.28 0.0
03 18:35 W 7 16.09 Fair CLR 32.8 24 60% 39 76.28 0.0
03 18:15 W 7 16.09 Fair CLR 34.2 23.9 55% 41 76.28 0.0
03 17:55 S 6 16.09 Fair CLR 34.5 21.3 46% 38 76.28 0.0
03 17:35 SW 6 16.09 Fair CLR 34.8 21.6 46% 39 76.28 0.0
03 17:15 Calm 16.09 Fair CLR 35 21.6 46% 39 76.3 0.0
03 16:55 SW 6 16.09 Fair CLR 34.9 21.5 46% 39 76.33 0.0
03 16:35 S 6 16.09 Fair CLR 35.1 21.4 45% 39 76.33 0.0
03 16:15 S 6 16.09 Fair CLR 35.2 21.7 45% 39 76.35 0.0
03 15:55 SW 7 16.09 Fair CLR 35.1 21.8 46% 39 76.35 0.0
03 15:35 S 9 16.09 Partly Cloudy SCT050 35.5 21.7 45% 40 76.38 0.0
03 15:15 S 9 16.09 Partly Cloudy SCT050 35.4 21.8 45% 40 76.38 0.0
03 14:55 Calm 16.09 Partly Cloudy SCT050 34.5 21.8 48% 39 76.4 0.0
03 14:35 SW 9 16.09 Fair CLR 34.7 21.8 47% 39 76.4 0.0
03 14:15 S 6 16.09 Partly Cloudy SCT050 34.8 22.1 48% 39 76.43 0.0
03 13:55 Calm 16.09 Fair CLR 34.4 21.5 34.7 21.2 47% 38 76.45 0.0
03 13:35 Calm 16.09 Fair CLR 34.3 21 46% 38 76.45 0.0
03 13:15 S 6 16.09 Fair CLR 34 21.1 47% 37 76.48 0.0
03 12:55 Calm 16.09 Fair CLR 33.5 21.5 49% 37 76.48 0.0
03 12:35 Calm 16.09 Fair CLR 32.7 22 53% 37 76.5 0.0
03 12:15 Calm 16.09 Fair CLR 31.7 23.4 61% 37 76.5 0.0
03 11:55 Calm 16.09 Fair CLR 30.5 23.3 65% 35 76.53 0.0
03 11:35 Calm 16.09 Fair CLR 29.3 23.3 70% 33 76.56 0.0
03 11:15 Calm 16.09 Fair CLR 27.8 23.1 76% 31 76.56 0.0
03 10:55 Calm 16.09 Fair CLR 26.7 22.7 79% 29 76.56 0.0
03 10:35 Calm 16.09 Partly Cloudy SCT005 25.2 22.6 86% 26 76.56 0.0
03 10:15 Calm 16.09 Mostly Cloudy BKN005 23.7 22.3 92% 76.56 0.0
03 09:55 Calm 16.09 Overcast OVC003 23 22.2 95% 76.56 0.0
03 09:35 Calm 16.09 Overcast OVC003 22.5 22 97% 76.58 0.0
03 09:15 Calm 11.27 Overcast OVC003 22.2 21.8 98% 76.58 0.0
03 08:55 Calm 8.05 Fog/Mist OVC003 21.7 21.6 99% 76.61 0.0
03 08:35 Calm 2.82 Fog/Mist OVC003 21.5 21.5 100% 76.61 0.0
03 08:15 Calm 1.61 Fog/Mist OVC003 21.3 21.3 100% 76.58 0.0
03 07:55 Calm 0.24 Fog OVC003 21.3 21.3 22.2 20.7 100% 76.58 0.0
03 07:35 Calm 1.21 Fog/Mist OVC003 21.2 21.2 100% 76.56 0.0
03 07:15 Calm 8.05 Fog/Mist OVC003 21.1 21.1 100% 76.53 0.0
03 06:55 Calm 11.27 Overcast OVC003 21.1 21.1 100% 76.53 0.0
03 06:35 Calm 16.09 Overcast OVC003 21.1 21.1 100% 76.5 0.0
03 06:15 Calm 4.83 Fog/Mist OVC003 21 21 100% 76.5 0.0
03 05:55 Calm 3.22 Fog/Mist OVC003 20.8 20.8 100% 76.5 0.0
03 05:35 Calm 0.40 Fog OVC003 21 21 100% 76.5 0.0
03 05:15 Calm 0.24 Fog OVC003 20.9 20.9 100% 76.5 0.0
03 04:55 Calm 0.80 Fog BKN005 21 21 100% 76.5 0.0
03 04:35 Calm 16.09 Partly Cloudy SCT003 21 21 100% 76.5 0.0
03 04:15 Calm 11.27 Mostly Cloudy BKN003 21.1 21.1 100% 76.5 0.0
03 03:35 Calm 16.09 Fair CLR 21.3 21.2 99% 76.48 0.0
03 03:15 Calm 16.09 Fair CLR 21.3 21.1 99% 76.48 0.0
03 02:55 Calm 16.09 Fair CLR 21.8 21.5 98% 76.48 0.0
03 02:35 Calm 16.09 Fair CLR 21.6 21.3 98% 76.48 0.0
03 02:15 Calm 16.09 Fair CLR 21.8 21.3 97% 76.48 0.0
03 01:55 Calm 16.09 Fair CLR 22.1 21.8 27.8 22 98% 76.48 0.0
03 01:35 Calm 16.09 Fair CLR 22.2 21.7 97% 76.5 0.0
03 01:15 Calm 16.09 Fair CLR 22.3 22 98% 76.5 0.0
03 00:55 Calm 16.09 Fair CLR 22.6 22 96% 76.5 0.0
03 00:35 Calm 16.09 Fair CLR 22.9 22.1 95% 76.5 0.0
03 00:15 Calm 16.09 Fair CLR 23 22.1 95% 76.5 0.0
02 23:55 Calm 16.09 Fair CLR 23.2 22.1 94% 76.5 0.0
02 23:35 Calm 16.09 Fair CLR 23.6 22 91% 76.5 0.0
02 23:15 Calm 16.09 Fair CLR 23.8 22 90% 76.5 0.0
02 22:55 Calm 16.09 Fair CLR 24.3 22.2 88% 24 76.5 0.0
02 22:35 Calm 16.09 Fair CLR 24.8 22.3 86% 25 76.5 0.0
02 22:15 Calm 16.09 Fair CLR 24.7 22.5 88% 25 76.5 0.0
02 21:55 Calm 16.09 Fair CLR 25.2 22.5 85% 26 76.5 0.0
02 21:35 Calm 16.09 Fair CLR 25.5 22.7 85% 27 76.48 0.0
02 21:15 W 9 16.09 Fair CLR 26 22.7 82% 28 76.48 0.0
02 20:55 W 6 16.09 Fair CLR 26.5 23 81% 29 76.45 0.0
02 20:35 W 6 16.09 Fair CLR 26.7 23 80% 29 76.43 0.0
02 20:15 W 6 16.09 Fair CLR 27.3 23.1 78% 30 76.43 0.0
02 19:55 W 11 16.09 Fair CLR 27.9 23.4 34.9 27.9 77% 31 76.43 0.0
02 19:35 W 6 16.09 Fair CLR 29 24 74% 34 76.43 0.0
02 19:15 W 6 16.09 Fair CLR 30.5 23.9 68% 36 76.43 0.0
02 18:55 W 7 16.09 Fair CLR 31.6 24.2 65% 38 76.43 0.0
02 18:35 Calm 16.09 Fair CLR 32.2 24.3 63% 39 76.43 0.0
02 18:15 W 6 16.09 Fair CLR 33.5 24.4 59% 40 76.43 0.0
02 17:55 Calm 16.09 Fair CLR 34.1 23.3 53% 40 76.43 0.0
02 17:35 SW 6 16.09 Fair CLR 34.4 21.8 48% 39 76.43 0.0
02 17:15 Calm 16.09 Partly Cloudy SCT050 34.7 21.8 47% 39 76.43 0.0
02 16:55 S 6 16.09 Partly Cloudy SCT050 34.5 22 48% 39 76.43 0.0
02 16:35 Calm 16.09 Fair CLR 34.2 21.8 48% 38 76.45 0.0
02 16:15 Calm 16.09 Partly Cloudy SCT050 SCT060 34.6 22 48% 39 76.45 0.0
Date Time (edt) Wind (kph) Vis. (km) Weather Sky Cond. Air Dwpt Max. Min. Relative Humidity Wind Chill (°C) Heat Index (°C) altimeter (cm) sea level (mb) 1 hr 3 hr 6 hr
6 hour
Temperature (ºC) Pressure Precipitation (cm)